createdAt,value
2023-05-18T00:02:21.717Z,12.78
2023-05-18T00:05:07.125Z,12.78
2023-05-18T00:07:52.891Z,12.79
2023-05-18T00:10:28.302Z,12.84
2023-05-18T00:13:12.516Z,12.75
2023-05-18T00:15:50.880Z,12.87
2023-05-18T00:18:36.454Z,12.82
2023-05-18T00:21:28.514Z,12.72
2023-05-18T00:24:12.851Z,12.77
2023-05-18T00:27:01.841Z,12.79
2023-05-18T00:29:28.922Z,12.81
2023-05-18T00:32:04.948Z,12.71
2023-05-18T00:34:42.878Z,12.71
2023-05-18T00:37:23.905Z,12.71
2023-05-18T00:40:03.203Z,12.75
2023-05-18T00:42:37.027Z,12.72
2023-05-18T00:45:17.789Z,12.70
2023-05-18T00:47:58.665Z,12.72
2023-05-18T00:50:39.449Z,12.68
2023-05-18T00:53:12.098Z,12.51
2023-05-18T00:55:59.522Z,12.47
2023-05-18T00:58:47.883Z,12.57
2023-05-18T01:01:34.612Z,12.58
2023-05-18T01:04:18.037Z,12.62
2023-05-18T01:07:06.882Z,12.53
2023-05-18T01:09:40.658Z,12.45
2023-05-18T01:12:37.640Z,12.52
2023-05-18T01:15:41.662Z,12.57
2023-05-18T01:18:34.331Z,12.63
2023-05-18T01:21:25.719Z,12.70
2023-05-18T01:24:25.985Z,12.74
2023-05-18T01:27:11.961Z,12.70
2023-05-18T01:29:48.774Z,12.60
2023-05-18T01:32:22.999Z,12.55
2023-05-18T01:35:04.130Z,12.45
2023-05-18T01:37:45.693Z,12.46
2023-05-18T01:40:35.676Z,12.42
2023-05-18T01:43:12.688Z,12.41
2023-05-18T01:46:16.786Z,12.27
2023-05-18T01:48:58.811Z,12.52
2023-05-18T01:51:49.735Z,12.48
2023-05-18T01:54:34.730Z,12.44
2023-05-18T01:57:13.115Z,12.52
2023-05-18T01:59:54.123Z,12.50
2023-05-18T02:02:42.895Z,12.55
2023-05-18T02:05:13.592Z,12.46
2023-05-18T02:07:58.257Z,12.52
2023-05-18T02:10:39.116Z,12.55
2023-05-18T02:13:26.213Z,12.61
2023-05-18T02:16:04.939Z,12.44
2023-05-18T02:18:40.780Z,12.40
2023-05-18T02:21:25.657Z,12.44
2023-05-18T02:24:13.769Z,12.44
2023-05-18T02:26:52.019Z,12.43
2023-05-18T02:29:35.134Z,12.36
2023-05-18T02:32:15.934Z,12.36
2023-05-18T02:34:54.630Z,12.24
2023-05-18T02:37:34.458Z,12.19
2023-05-18T02:40:17.201Z,12.21
2023-05-18T02:42:52.817Z,12.22
2023-05-18T02:45:36.743Z,12.23
2023-05-18T02:48:07.002Z,12.17
2023-05-18T02:50:52.832Z,12.14
2023-05-18T02:53:33.729Z,12.20
2023-05-18T02:56:07.901Z,12.21
2023-05-18T02:59:02.879Z,12.22
2023-05-18T03:01:46.898Z,12.19
2023-05-18T03:04:43.047Z,12.20
2023-05-18T03:07:18.230Z,12.14
2023-05-18T03:10:04.021Z,12.16
2023-05-18T03:12:47.069Z,12.24
2023-05-18T03:15:22.232Z,12.20
2023-05-18T03:18:06.298Z,11.98
2023-05-18T03:20:42.362Z,12.22
2023-05-18T03:23:40.239Z,12.32
2023-05-18T03:26:19.771Z,12.37
2023-05-18T03:29:01.781Z,12.29
2023-05-18T03:31:43.867Z,12.28
2023-05-18T03:34:29.220Z,12.20
2023-05-18T03:37:09.524Z,12.29
2023-05-18T03:39:36.565Z,12.19
2023-05-18T03:42:14.445Z,12.19
2023-05-18T03:44:49.922Z,12.16
2023-05-18T03:47:22.855Z,12.23
2023-05-18T03:49:52.613Z,12.21
2023-05-18T03:52:30.997Z,12.29
2023-05-18T03:55:21.729Z,12.19
2023-05-18T03:57:56.951Z,12.12
2023-05-18T04:00:40.746Z,12.18
2023-05-18T04:03:14.808Z,12.21
2023-05-18T04:05:59.280Z,12.13
2023-05-18T04:08:37.621Z,12.19
2023-05-18T04:11:19.486Z,12.18
2023-05-18T04:13:54.572Z,12.24
2023-05-18T04:16:32.389Z,12.19
2023-05-18T04:19:11.585Z,12.19
2023-05-18T04:21:57.494Z,12.23
2023-05-18T04:24:35.757Z,12.22
2023-05-18T04:27:06.870Z,12.12
2023-05-18T04:29:52.081Z,12.13
2023-05-18T04:32:34.299Z,12.13
2023-05-18T04:35:26.892Z,12.19
2023-05-18T04:38:16.836Z,12.22
2023-05-18T04:40:53.269Z,12.21
2023-05-18T04:43:40.830Z,12.26
2023-05-18T04:46:19.001Z,12.31
2023-05-18T04:49:03.786Z,12.23
2023-05-18T04:51:55.807Z,12.29
2023-05-18T04:54:24.219Z,12.16
2023-05-18T04:56:59.503Z,12.22
2023-05-18T04:59:37.283Z,12.23
2023-05-18T05:02:18.197Z,12.18
2023-05-18T05:05:05.051Z,12.21
2023-05-18T05:07:49.752Z,12.23
2023-05-18T05:10:30.615Z,12.29
2023-05-18T05:13:17.963Z,12.32
2023-05-18T05:15:47.256Z,12.36
2023-05-18T05:18:20.320Z,12.35
2023-05-18T05:20:59.945Z,12.33
2023-05-18T05:23:41.034Z,12.33
2023-05-18T05:26:27.157Z,12.43
2023-05-18T05:29:08.840Z,12.38
2023-05-18T05:32:01.499Z,12.41
2023-05-18T05:34:47.761Z,12.45
2023-05-18T05:37:26.879Z,12.41
2023-05-18T05:40:15.561Z,12.40
2023-05-18T05:43:02.182Z,12.43
2023-05-18T05:45:55.342Z,12.39
2023-05-18T05:48:31.152Z,12.44
2023-05-18T05:51:13.406Z,12.45
2023-05-18T05:54:00.768Z,12.29
2023-05-18T05:56:41.605Z,12.29
2023-05-18T05:59:30.266Z,12.29
2023-05-18T06:02:13.676Z,12.26
2023-05-18T06:04:54.515Z,12.27
2023-05-18T06:07:41.022Z,12.27
2023-05-18T06:10:17.441Z,12.37
2023-05-18T06:12:56.217Z,12.31
2023-05-18T06:15:41.539Z,12.27
2023-05-18T06:18:20.798Z,12.22
2023-05-18T06:21:06.670Z,12.25
2023-05-18T06:23:47.942Z,12.19
2023-05-18T06:26:49.894Z,12.30
2023-05-18T06:29:55.206Z,12.26
2023-05-18T06:32:50.350Z,12.29
2023-05-18T06:35:33.547Z,12.34
2023-05-18T06:38:22.932Z,12.36
2023-05-18T06:41:11.415Z,12.50
2023-05-18T06:44:06.257Z,12.44
2023-05-18T06:46:54.317Z,12.39
2023-05-18T06:49:50.629Z,12.46
2023-05-18T06:52:33.921Z,12.51
2023-05-18T06:55:15.449Z,12.57
2023-05-18T06:57:48.317Z,12.66
2023-05-18T07:00:29.722Z,12.69
2023-05-18T07:03:16.898Z,12.75
2023-05-18T07:06:00.374Z,12.81
2023-05-18T07:08:41.681Z,12.83
2023-05-18T07:11:19.711Z,12.78
2023-05-18T07:14:11.495Z,12.78
2023-05-18T07:16:49.684Z,12.87
2023-05-18T07:19:33.217Z,12.89
2023-05-18T07:22:20.719Z,12.92
2023-05-18T07:25:02.628Z,12.95
2023-05-18T07:27:40.854Z,12.93
2023-05-18T07:30:13.856Z,12.92
2023-05-18T07:32:58.035Z,13.02
2023-05-18T07:35:41.874Z,13.09
2023-05-18T07:38:31.400Z,12.99
2023-05-18T07:41:06.565Z,13.11
2023-05-18T07:43:42.261Z,13.20
2023-05-18T07:46:32.670Z,13.14
2023-05-18T07:49:02.751Z,13.19
2023-05-18T07:51:42.506Z,13.28
2023-05-18T07:54:17.645Z,13.31
2023-05-18T07:57:01.012Z,13.35
2023-05-18T07:59:34.248Z,13.51
2023-05-18T08:02:07.766Z,13.61
2023-05-18T08:04:49.034Z,13.67
2023-05-18T08:07:36.163Z,13.69
2023-05-18T08:10:16.853Z,13.79
2023-05-18T08:12:59.812Z,13.77
2023-05-18T08:15:34.833Z,13.89
2023-05-18T08:18:14.740Z,14.00
2023-05-18T08:20:55.811Z,14.03
2023-05-18T08:23:34.254Z,14.07
2023-05-18T08:26:14.084Z,14.18
2023-05-18T08:28:55.724Z,14.16
2023-05-18T08:31:39.967Z,14.23
2023-05-18T08:34:16.631Z,14.44
2023-05-18T08:37:00.611Z,14.52
2023-05-18T08:39:42.820Z,14.44
2023-05-18T08:42:49.971Z,14.43
2023-05-18T08:45:31.353Z,14.67
2023-05-18T08:48:13.926Z,14.67
2023-05-18T08:50:49.669Z,14.90
2023-05-18T08:53:34.120Z,14.94
2023-05-18T08:56:15.768Z,15.04
2023-05-18T08:59:04.996Z,15.12
2023-05-18T09:01:45.681Z,15.28
2023-05-18T09:04:27.554Z,15.12
2023-05-18T09:07:06.935Z,15.34
2023-05-18T09:09:38.575Z,14.97
2023-05-18T09:12:17.799Z,15.17
2023-05-18T09:14:59.187Z,15.23
2023-05-18T09:17:43.509Z,14.95
2023-05-18T09:20:22.635Z,14.94
2023-05-18T09:22:57.820Z,14.82
2023-05-18T09:25:46.073Z,14.90
2023-05-18T09:28:35.561Z,15.03
2023-05-18T09:31:19.841Z,14.98
2023-05-18T09:34:10.615Z,14.95
2023-05-18T09:37:12.617Z,14.94
2023-05-18T09:40:11.416Z,14.95
2023-05-18T09:43:07.619Z,15.01
2023-05-18T09:45:54.584Z,14.92
2023-05-18T09:48:38.553Z,15.13
2023-05-18T09:51:33.387Z,15.06
2023-05-18T09:54:17.804Z,15.11
2023-05-18T09:57:09.039Z,15.25
2023-05-18T09:59:53.565Z,15.22
2023-05-18T10:02:44.087Z,15.34
2023-05-18T10:05:34.843Z,15.34
2023-05-18T10:08:12.638Z,15.26
2023-05-18T10:10:55.721Z,15.30
2023-05-18T10:13:39.443Z,15.35
2023-05-18T10:16:21.711Z,15.43
2023-05-18T10:19:02.746Z,15.47
